sensor_id;sensor_type;location;lat;lon;timestamp;temperature;humidity
4207;DHT22;2117;47.972;7.830;2023-08-06T01:00:32;15.50;99.90
4207;DHT22;2117;47.972;7.830;2023-08-06T01:02:58;15.50;99.90
4207;DHT22;2117;47.972;7.830;2023-08-06T01:05:24;15.50;99.90
4207;DHT22;2117;47.972;7.830;2023-08-06T01:11:04;15.50;99.90
4207;DHT22;2117;47.972;7.830;2023-08-06T01:13:48;15.50;99.90
4207;DHT22;2117;47.972;7.830;2023-08-06T01:16:18;15.50;99.90
4207;DHT22;2117;47.972;7.830;2023-08-06T01:18:43;15.60;99.90
4207;DHT22;2117;47.972;7.830;2023-08-06T01:21:13;15.60;99.90
4207;DHT22;2117;47.972;7.830;2023-08-06T01:23:38;15.60;99.90
4207;DHT22;2117;47.972;7.830;2023-08-06T01:28:48;15.70;99.90
4207;DHT22;2117;47.972;7.830;2023-08-06T01:31:29;15.70;99.90
4207;DHT22;2117;47.972;7.830;2023-08-06T01:33:58;15.80;99.90
4207;DHT22;2117;47.972;7.830;2023-08-06T01:36:24;15.90;99.90
4207;DHT22;2117;47.972;7.830;2023-08-06T01:38:51;15.90;99.90
4207;DHT22;2117;47.972;7.830;2023-08-06T01:41:18;15.90;99.90
4207;DHT22;2117;47.972;7.830;2023-08-06T01:43:43;16.00;99.90
4207;DHT22;2117;47.972;7.830;2023-08-06T01:46:09;16.10;99.90
4207;DHT22;2117;47.972;7.830;2023-08-06T01:48:35;16.00;99.90
4207;DHT22;2117;47.972;7.830;2023-08-06T01:51:00;16.10;99.90
4207;DHT22;2117;47.972;7.830;2023-08-06T01:53:26;16.10;99.90
4207;DHT22;2117;47.972;7.830;2023-08-06T01:55:51;16.10;99.90
4207;DHT22;2117;47.972;7.830;2023-08-06T01:58:17;16.10;99.90
4207;DHT22;2117;47.972;7.830;2023-08-06T02:00:42;16.20;99.90
4207;DHT22;2117;47.972;7.830;2023-08-06T02:03:08;16.20;99.90
4207;DHT22;2117;47.972;7.830;2023-08-06T02:05:33;16.20;99.90
4207;DHT22;2117;47.972;7.830;2023-08-06T02:07:59;16.20;99.90
4207;DHT22;2117;47.972;7.830;2023-08-06T02:10:24;16.10;99.90
4207;DHT22;2117;47.972;7.830;2023-08-06T02:12:50;16.10;99.90
4207;DHT22;2117;47.972;7.830;2023-08-06T02:15:16;16.00;99.90
4207;DHT22;2117;47.972;7.830;2023-08-06T02:17:41;15.90;99.90
4207;DHT22;2117;47.972;7.830;2023-08-06T02:20:07;15.80;99.90
4207;DHT22;2117;47.972;7.830;2023-08-06T02:22:32;15.80;99.90
4207;DHT22;2117;47.972;7.830;2023-08-06T02:24:58;15.50;99.90
4207;DHT22;2117;47.972;7.830;2023-08-06T02:27:24;15.50;99.90
4207;DHT22;2117;47.972;7.830;2023-08-06T02:29:50;15.50;99.90
4207;DHT22;2117;47.972;7.830;2023-08-06T02:32:15;15.40;99.90
4207;DHT22;2117;47.972;7.830;2023-08-06T02:34:41;15.30;99.90
4207;DHT22;2117;47.972;7.830;2023-08-06T02:37:06;15.20;99.90
4207;DHT22;2117;47.972;7.830;2023-08-06T02:39:32;15.20;99.90
4207;DHT22;2117;47.972;7.830;2023-08-06T02:41:59;15.20;99.90
4207;DHT22;2117;47.972;7.830;2023-08-06T02:44:27;15.10;99.90
4207;DHT22;2117;47.972;7.830;2023-08-06T02:46:53;15.00;99.90
4207;DHT22;2117;47.972;7.830;2023-08-06T02:49:18;14.90;99.90
4207;DHT22;2117;47.972;7.830;2023-08-06T02:51:47;14.80;99.90
4207;DHT22;2117;47.972;7.830;2023-08-06T02:54:12;14.80;99.90
4207;DHT22;2117;47.972;7.830;2023-08-06T02:56:38;14.70;99.90
4207;DHT22;2117;47.972;7.830;2023-08-06T02:59:04;14.50;99.90
4207;DHT22;2117;47.972;7.830;2023-08-06T03:01:29;14.40;99.90
4207;DHT22;2117;47.972;7.830;2023-08-06T03:03:55;14.40;99.90
4207;DHT22;2117;47.972;7.830;2023-08-06T03:06:20;14.30;99.90
4207;DHT22;2117;47.972;7.830;2023-08-06T03:08:46;14.30;99.90
4207;DHT22;2117;47.972;7.830;2023-08-06T03:11:12;14.20;99.90
4207;DHT22;2117;47.972;7.830;2023-08-06T03:13:37;14.20;99.90
4207;DHT22;2117;47.972;7.830;2023-08-06T03:16:03;14.10;99.90
4207;DHT22;2117;47.972;7.830;2023-08-06T03:18:28;14.00;99.90
4207;DHT22;2117;47.972;7.830;2023-08-06T03:20:54;14.00;99.90
4207;DHT22;2117;47.972;7.830;2023-08-06T03:23:20;14.00;99.90
4207;DHT22;2117;47.972;7.830;2023-08-06T03:25:46;13.90;99.90
4207;DHT22;2117;47.972;7.830;2023-08-06T03:28:12;14.00;99.90
4207;DHT22;2117;47.972;7.830;2023-08-06T03:30:37;14.00;99.90
4207;DHT22;2117;47.972;7.830;2023-08-06T03:33:03;14.00;99.90
4207;DHT22;2117;47.972;7.830;2023-08-06T03:35:29;13.90;99.90
4207;DHT22;2117;47.972;7.830;2023-08-06T03:37:54;13.90;99.90
4207;DHT22;2117;47.972;7.830;2023-08-06T03:40:20;13.90;99.90
4207;DHT22;2117;47.972;7.830;2023-08-06T03:42:45;13.90;99.90
4207;DHT22;2117;47.972;7.830;2023-08-06T03:45:11;13.80;99.90
4207;DHT22;2117;47.972;7.830;2023-08-06T03:47:36;13.80;99.90
4207;DHT22;2117;47.972;7.830;2023-08-06T03:50:02;13.80;99.90
4207;DHT22;2117;47.972;7.830;2023-08-06T03:52:28;13.80;99.90
4207;DHT22;2117;47.972;7.830;2023-08-06T03:54:53;13.70;99.90
4207;DHT22;2117;47.972;7.830;2023-08-06T03:57:19;13.70;99.90
4207;DHT22;2117;47.972;7.830;2023-08-06T03:59:44;13.70;99.90
4207;DHT22;2117;47.972;7.830;2023-08-06T04:02:10;13.60;99.90
4207;DHT22;2117;47.972;7.830;2023-08-06T04:04:35;13.60;99.90
4207;DHT22;2117;47.972;7.830;2023-08-06T04:07:01;13.60;99.90
4207;DHT22;2117;47.972;7.830;2023-08-06T04:09:29;13.60;99.90
4207;DHT22;2117;47.972;7.830;2023-08-06T04:11:54;13.50;99.90
4207;DHT22;2117;47.972;7.830;2023-08-06T04:14:20;13.60;99.90
4207;DHT22;2117;47.972;7.830;2023-08-06T04:16:46;13.50;99.90
4207;DHT22;2117;47.972;7.830;2023-08-06T04:19:11;13.50;99.90
4207;DHT22;2117;47.972;7.830;2023-08-06T04:21:37;13.50;99.90
4207;DHT22;2117;47.972;7.830;2023-08-06T04:24:02;13.50;99.90
4207;DHT22;2117;47.972;7.830;2023-08-06T04:26:28;13.50;99.90
4207;DHT22;2117;47.972;7.830;2023-08-06T04:28:54;13.50;99.90
4207;DHT22;2117;47.972;7.830;2023-08-06T04:31:19;13.60;99.90
4207;DHT22;2117;47.972;7.830;2023-08-06T04:33:45;13.50;99.90
4207;DHT22;2117;47.972;7.830;2023-08-06T04:36:11;13.60;99.90
4207;DHT22;2117;47.972;7.830;2023-08-06T04:38:37;13.60;99.90
4207;DHT22;2117;47.972;7.830;2023-08-06T04:41:03;13.60;99.90
4207;DHT22;2117;47.972;7.830;2023-08-06T04:43:31;13.60;99.90
4207;DHT22;2117;47.972;7.830;2023-08-06T04:45:57;13.50;99.90
4207;DHT22;2117;47.972;7.830;2023-08-06T04:48:23;13.60;99.90
4207;DHT22;2117;47.972;7.830;2023-08-06T04:50:50;13.60;99.90
4207;DHT22;2117;47.972;7.830;2023-08-06T04:53:16;13.60;99.90
4207;DHT22;2117;47.972;7.830;2023-08-06T04:55:41;13.50;99.90
4207;DHT22;2117;47.972;7.830;2023-08-06T04:58:09;13.50;99.90
4207;DHT22;2117;47.972;7.830;2023-08-06T05:00:35;13.60;99.90
4207;DHT22;2117;47.972;7.830;2023-08-06T05:03:01;13.80;99.90
4207;DHT22;2117;47.972;7.830;2023-08-06T05:05:27;13.90;99.90
4207;DHT22;2117;47.972;7.830;2023-08-06T05:07:55;13.70;99.90
4207;DHT22;2117;47.972;7.830;2023-08-06T05:10:21;13.50;99.90
4207;DHT22;2117;47.972;7.830;2023-08-06T05:12:47;13.30;99.90
4207;DHT22;2117;47.972;7.830;2023-08-06T05:15:12;13.30;99.90
4207;DHT22;2117;47.972;7.830;2023-08-06T05:17:38;13.10;99.90
4207;DHT22;2117;47.972;7.830;2023-08-06T05:20:04;13.00;99.90
4207;DHT22;2117;47.972;7.830;2023-08-06T05:22:30;13.00;99.90
4207;DHT22;2117;47.972;7.830;2023-08-06T05:24:55;12.90;99.90
4207;DHT22;2117;47.972;7.830;2023-08-06T05:27:21;12.90;99.90
4207;DHT22;2117;47.972;7.830;2023-08-06T05:29:48;12.80;99.90
4207;DHT22;2117;47.972;7.830;2023-08-06T05:32:13;12.80;99.90
4207;DHT22;2117;47.972;7.830;2023-08-06T05:34:39;12.80;99.90
4207;DHT22;2117;47.972;7.830;2023-08-06T05:37:05;12.90;99.90
4207;DHT22;2117;47.972;7.830;2023-08-06T05:39:30;12.90;99.90
4207;DHT22;2117;47.972;7.830;2023-08-06T05:41:56;12.90;99.90
4207;DHT22;2117;47.972;7.830;2023-08-06T05:44:23;13.00;99.90
4207;DHT22;2117;47.972;7.830;2023-08-06T05:46:49;13.00;99.90
4207;DHT22;2117;47.972;7.830;2023-08-06T05:49:15;13.00;99.90
4207;DHT22;2117;47.972;7.830;2023-08-06T05:51:41;12.90;99.90
4207;DHT22;2117;47.972;7.830;2023-08-06T05:54:07;13.00;99.90
4207;DHT22;2117;47.972;7.830;2023-08-06T05:56:32;13.00;99.90
4207;DHT22;2117;47.972;7.830;2023-08-06T05:58:58;13.00;99.90
4207;DHT22;2117;47.972;7.830;2023-08-06T06:01:23;13.00;99.90
4207;DHT22;2117;47.972;7.830;2023-08-06T06:03:49;13.00;99.90
4207;DHT22;2117;47.972;7.830;2023-08-06T06:06:14;13.00;99.90
4207;DHT22;2117;47.972;7.830;2023-08-06T06:08:41;13.10;99.90
4207;DHT22;2117;47.972;7.830;2023-08-06T06:11:06;13.20;99.90
4207;DHT22;2117;47.972;7.830;2023-08-06T06:13:32;13.20;99.90
4207;DHT22;2117;47.972;7.830;2023-08-06T06:15:57;13.20;99.90
4207;DHT22;2117;47.972;7.830;2023-08-06T06:18:23;13.30;99.90
4207;DHT22;2117;47.972;7.830;2023-08-06T06:20:49;13.30;99.90
4207;DHT22;2117;47.972;7.830;2023-08-06T06:23:14;13.30;99.90
4207;DHT22;2117;47.972;7.830;2023-08-06T06:25:46;13.30;99.90
4207;DHT22;2117;47.972;7.830;2023-08-06T06:28:12;13.20;99.90
4207;DHT22;2117;47.972;7.830;2023-08-06T06:30:37;13.20;99.90
4207;DHT22;2117;47.972;7.830;2023-08-06T06:33:03;13.20;99.90
4207;DHT22;2117;47.972;7.830;2023-08-06T06:35:28;13.10;99.90
4207;DHT22;2117;47.972;7.830;2023-08-06T06:37:54;13.10;99.90
4207;DHT22;2117;47.972;7.830;2023-08-06T06:40:20;13.00;99.90
4207;DHT22;2117;47.972;7.830;2023-08-06T06:42:45;13.10;99.90
4207;DHT22;2117;47.972;7.830;2023-08-06T06:45:11;13.10;99.90
4207;DHT22;2117;47.972;7.830;2023-08-06T06:47:36;13.10;99.90
4207;DHT22;2117;47.972;7.830;2023-08-06T06:50:02;13.10;99.90
4207;DHT22;2117;47.972;7.830;2023-08-06T06:52:27;13.10;99.90
4207;DHT22;2117;47.972;7.830;2023-08-06T06:54:53;13.10;99.90
4207;DHT22;2117;47.972;7.830;2023-08-06T06:57:19;13.00;99.90
4207;DHT22;2117;47.972;7.830;2023-08-06T06:59:44;13.00;99.90
4207;DHT22;2117;47.972;7.830;2023-08-06T07:02:10;13.00;99.90
4207;DHT22;2117;47.972;7.830;2023-08-06T07:04:35;13.00;99.90
4207;DHT22;2117;47.972;7.830;2023-08-06T07:07:01;13.10;99.90
4207;DHT22;2117;47.972;7.830;2023-08-06T07:09:26;13.10;99.90
4207;DHT22;2117;47.972;7.830;2023-08-06T07:11:52;13.10;99.90
4207;DHT22;2117;47.972;7.830;2023-08-06T07:14:18;13.00;99.90
4207;DHT22;2117;47.972;7.830;2023-08-06T07:16:43;13.00;99.90
4207;DHT22;2117;47.972;7.830;2023-08-06T07:19:09;13.10;99.90
4207;DHT22;2117;47.972;7.830;2023-08-06T07:21:34;13.10;99.90
4207;DHT22;2117;47.972;7.830;2023-08-06T07:24:00;13.10;99.90
4207;DHT22;2117;47.972;7.830;2023-08-06T07:26:25;13.10;99.90
4207;DHT22;2117;47.972;7.830;2023-08-06T07:28:51;13.20;99.90
4207;DHT22;2117;47.972;7.830;2023-08-06T07:31:17;13.20;99.90
4207;DHT22;2117;47.972;7.830;2023-08-06T07:33:42;13.20;99.90
4207;DHT22;2117;47.972;7.830;2023-08-06T07:36:10;13.30;99.90
4207;DHT22;2117;47.972;7.830;2023-08-06T07:38:36;13.30;99.90
4207;DHT22;2117;47.972;7.830;2023-08-06T07:41:02;13.30;99.90
4207;DHT22;2117;47.972;7.830;2023-08-06T07:43:28;13.40;99.90
4207;DHT22;2117;47.972;7.830;2023-08-06T07:45:53;13.40;99.90
4207;DHT22;2117;47.972;7.830;2023-08-06T07:48:19;13.40;99.90
4207;DHT22;2117;47.972;7.830;2023-08-06T07:50:44;13.40;99.90
4207;DHT22;2117;47.972;7.830;2023-08-06T07:53:15;13.40;99.90
4207;DHT22;2117;47.972;7.830;2023-08-06T07:55:41;13.70;99.90
4207;DHT22;2117;47.972;7.830;2023-08-06T07:58:07;13.60;99.90
4207;DHT22;2117;47.972;7.830;2023-08-06T08:00:33;13.70;99.90
4207;DHT22;2117;47.972;7.830;2023-08-06T08:02:58;13.70;99.90
4207;DHT22;2117;47.972;7.830;2023-08-06T08:05:24;13.80;99.90
4207;DHT22;2117;47.972;7.830;2023-08-06T08:07:50;13.80;99.90
4207;DHT22;2117;47.972;7.830;2023-08-06T08:10:15;13.70;99.90
4207;DHT22;2117;47.972;7.830;2023-08-06T08:12:41;13.70;99.90
4207;DHT22;2117;47.972;7.830;2023-08-06T08:15:08;13.80;99.90
4207;DHT22;2117;47.972;7.830;2023-08-06T08:17:33;13.70;99.90
4207;DHT22;2117;47.972;7.830;2023-08-06T08:20:00;13.60;99.90
4207;DHT22;2117;47.972;7.830;2023-08-06T08:22:25;13.60;99.90
4207;DHT22;2117;47.972;7.830;2023-08-06T08:24:51;13.60;99.90
4207;DHT22;2117;47.972;7.830;2023-08-06T08:29:43;13.60;99.90
4207;DHT22;2117;47.972;7.830;2023-08-06T08:32:08;13.60;99.90
4207;DHT22;2117;47.972;7.830;2023-08-06T08:34:34;13.60;99.90
4207;DHT22;2117;47.972;7.830;2023-08-06T08:37:00;13.60;99.90
4207;DHT22;2117;47.972;7.830;2023-08-06T08:39:25;13.60;99.90
4207;DHT22;2117;47.972;7.830;2023-08-06T08:44:17;13.50;99.90
4207;DHT22;2117;47.972;7.830;2023-08-06T08:46:44;13.40;99.90
4207;DHT22;2117;47.972;7.830;2023-08-06T08:49:10;13.40;99.90
4207;DHT22;2117;47.972;7.830;2023-08-06T08:51:36;13.40;99.90
4207;DHT22;2117;47.972;7.830;2023-08-06T08:54:03;13.50;99.90
4207;DHT22;2117;47.972;7.830;2023-08-06T08:56:29;13.60;99.90
4207;DHT22;2117;47.972;7.830;2023-08-06T08:58:55;13.70;99.90
4207;DHT22;2117;47.972;7.830;2023-08-06T09:01:22;13.70;99.90
4207;DHT22;2117;47.972;7.830;2023-08-06T09:03:48;13.80;99.90
4207;DHT22;2117;47.972;7.830;2023-08-06T09:06:14;13.90;99.90
4207;DHT22;2117;47.972;7.830;2023-08-06T09:08:47;13.80;99.90
4207;DHT22;2117;47.972;7.830;2023-08-06T09:11:13;14.00;99.90
4207;DHT22;2117;47.972;7.830;2023-08-06T09:13:39;14.00;99.90
4207;DHT22;2117;47.972;7.830;2023-08-06T09:16:05;14.10;99.90
4207;DHT22;2117;47.972;7.830;2023-08-06T09:18:33;14.00;99.90
4207;DHT22;2117;47.972;7.830;2023-08-06T09:21:01;14.00;99.90
4207;DHT22;2117;47.972;7.830;2023-08-06T09:23:28;14.00;99.90
4207;DHT22;2117;47.972;7.830;2023-08-06T09:25:59;14.10;99.90
4207;DHT22;2117;47.972;7.830;2023-08-06T09:28:25;14.10;99.90
4207;DHT22;2117;47.972;7.830;2023-08-06T09:31:01;14.10;99.90
4207;DHT22;2117;47.972;7.830;2023-08-06T09:33:29;14.20;99.90
4207;DHT22;2117;47.972;7.830;2023-08-06T09:35:54;14.10;99.90
4207;DHT22;2117;47.972;7.830;2023-08-06T09:38:20;14.10;99.90
4207;DHT22;2117;47.972;7.830;2023-08-06T09:40:47;14.10;99.90
4207;DHT22;2117;47.972;7.830;2023-08-06T09:43:12;14.10;99.90
4207;DHT22;2117;47.972;7.830;2023-08-06T09:45:39;14.20;99.90
4207;DHT22;2117;47.972;7.830;2023-08-06T09:48:08;14.20;99.90
4207;DHT22;2117;47.972;7.830;2023-08-06T09:50:38;14.20;99.90
4207;DHT22;2117;47.972;7.830;2023-08-06T09:53:05;14.10;99.90
4207;DHT22;2117;47.972;7.830;2023-08-06T09:55:32;14.00;99.90
4207;DHT22;2117;47.972;7.830;2023-08-06T09:57:59;14.20;99.90
4207;DHT22;2117;47.972;7.830;2023-08-06T10:00:25;14.30;99.90
4207;DHT22;2117;47.972;7.830;2023-08-06T10:02:53;14.30;99.90
4207;DHT22;2117;47.972;7.830;2023-08-06T10:05:22;14.50;99.90
4207;DHT22;2117;47.972;7.830;2023-08-06T10:07:49;14.50;99.90
4207;DHT22;2117;47.972;7.830;2023-08-06T10:10:16;14.60;99.90
4207;DHT22;2117;47.972;7.830;2023-08-06T10:12:54;14.60;99.90
4207;DHT22;2117;47.972;7.830;2023-08-06T10:15:25;14.50;99.90
4207;DHT22;2117;47.972;7.830;2023-08-06T10:17:54;14.50;99.90
4207;DHT22;2117;47.972;7.830;2023-08-06T10:20:21;14.50;99.90
4207;DHT22;2117;47.972;7.830;2023-08-06T10:23:03;14.50;99.90
4207;DHT22;2117;47.972;7.830;2023-08-06T10:25:32;14.50;99.90
4207;DHT22;2117;47.972;7.830;2023-08-06T10:28:08;14.50;99.90
4207;DHT22;2117;47.972;7.830;2023-08-06T10:30:41;14.40;99.90
4207;DHT22;2117;47.972;7.830;2023-08-06T10:33:07;14.50;99.90
4207;DHT22;2117;47.972;7.830;2023-08-06T10:35:42;14.40;99.90
4207;DHT22;2117;47.972;7.830;2023-08-06T10:38:21;14.30;99.90
4207;DHT22;2117;47.972;7.830;2023-08-06T10:41:07;14.30;99.90
4207;DHT22;2117;47.972;7.830;2023-08-06T10:43:36;14.30;99.90
4207;DHT22;2117;47.972;7.830;2023-08-06T10:46:09;14.30;99.90
4207;DHT22;2117;47.972;7.830;2023-08-06T10:48:44;14.30;99.90
4207;DHT22;2117;47.972;7.830;2023-08-06T10:51:12;14.30;99.90
4207;DHT22;2117;47.972;7.830;2023-08-06T10:53:38;14.30;99.90
4207;DHT22;2117;47.972;7.830;2023-08-06T10:56:23;14.30;99.90
4207;DHT22;2117;47.972;7.830;2023-08-06T10:58:49;14.40;99.90
4207;DHT22;2117;47.972;7.830;2023-08-06T11:01:15;14.40;99.90
4207;DHT22;2117;47.972;7.830;2023-08-06T11:03:45;14.40;99.90
4207;DHT22;2117;47.972;7.830;2023-08-06T11:06:17;14.50;99.90
4207;DHT22;2117;47.972;7.830;2023-08-06T11:08:51;14.40;99.90
4207;DHT22;2117;47.972;7.830;2023-08-06T11:11:17;14.40;99.90
4207;DHT22;2117;47.972;7.830;2023-08-06T11:13:45;14.30;99.90
4207;DHT22;2117;47.972;7.830;2023-08-06T11:16:18;14.30;99.90
4207;DHT22;2117;47.972;7.830;2023-08-06T11:18:44;14.40;99.90
4207;DHT22;2117;47.972;7.830;2023-08-06T11:21:11;14.80;99.90
4207;DHT22;2117;47.972;7.830;2023-08-06T11:23:40;14.90;99.90
4207;DHT22;2117;47.972;7.830;2023-08-06T11:26:06;14.70;99.90
4207;DHT22;2117;47.972;7.830;2023-08-06T11:28:32;14.60;99.90
4207;DHT22;2117;47.972;7.830;2023-08-06T11:30:58;14.30;99.90
4207;DHT22;2117;47.972;7.830;2023-08-06T11:33:27;14.40;99.90
4207;DHT22;2117;47.972;7.830;2023-08-06T11:35:57;14.40;99.90
4207;DHT22;2117;47.972;7.830;2023-08-06T11:38:30;14.30;99.90
4207;DHT22;2117;47.972;7.830;2023-08-06T11:40:56;14.40;99.90
4207;DHT22;2117;47.972;7.830;2023-08-06T11:43:22;14.40;99.90
4207;DHT22;2117;47.972;7.830;2023-08-06T11:45:49;14.50;99.90
4207;DHT22;2117;47.972;7.830;2023-08-06T11:48:15;14.60;99.90
4207;DHT22;2117;47.972;7.830;2023-08-06T11:50:40;14.60;99.90
4207;DHT22;2117;47.972;7.830;2023-08-06T11:53:06;14.60;99.90
4207;DHT22;2117;47.972;7.830;2023-08-06T11:55:32;14.70;99.90
4207;DHT22;2117;47.972;7.830;2023-08-06T11:57:59;14.60;99.90
4207;DHT22;2117;47.972;7.830;2023-08-06T12:00:29;14.60;99.90
4207;DHT22;2117;47.972;7.830;2023-08-06T12:02:54;14.60;99.90
4207;DHT22;2117;47.972;7.830;2023-08-06T12:05:31;14.50;99.90
4207;DHT22;2117;47.972;7.830;2023-08-06T12:07:59;14.50;99.90
4207;DHT22;2117;47.972;7.830;2023-08-06T12:10:26;14.50;99.90
4207;DHT22;2117;47.972;7.830;2023-08-06T12:12:53;14.50;99.90
4207;DHT22;2117;47.972;7.830;2023-08-06T12:15:19;14.50;99.90
4207;DHT22;2117;47.972;7.830;2023-08-06T12:20:11;14.60;99.90
4207;DHT22;2117;47.972;7.830;2023-08-06T12:22:37;14.60;99.90
4207;DHT22;2117;47.972;7.830;2023-08-06T12:25:06;14.70;99.90
4207;DHT22;2117;47.972;7.830;2023-08-06T12:27:36;14.80;99.90
4207;DHT22;2117;47.972;7.830;2023-08-06T12:30:03;14.80;99.90
4207;DHT22;2117;47.972;7.830;2023-08-06T12:32:29;14.90;99.90
4207;DHT22;2117;47.972;7.830;2023-08-06T12:34:55;15.10;99.90
4207;DHT22;2117;47.972;7.830;2023-08-06T12:37:21;15.30;99.90
4207;DHT22;2117;47.972;7.830;2023-08-06T12:39:46;15.50;99.90
4207;DHT22;2117;47.972;7.830;2023-08-06T12:42:12;15.50;99.90
4207;DHT22;2117;47.972;7.830;2023-08-06T12:44:38;15.50;99.90
4207;DHT22;2117;47.972;7.830;2023-08-06T12:47:03;15.40;99.90
4207;DHT22;2117;47.972;7.830;2023-08-06T12:49:29;15.50;99.90
4207;DHT22;2117;47.972;7.830;2023-08-06T12:51:56;15.40;99.90
4207;DHT22;2117;47.972;7.830;2023-08-06T12:56:49;14.90;99.90
4207;DHT22;2117;47.972;7.830;2023-08-06T12:59:16;14.60;99.90
4207;DHT22;2117;47.972;7.830;2023-08-06T13:01:42;14.70;99.90
4207;DHT22;2117;47.972;7.830;2023-08-06T13:04:08;14.60;99.90
4207;DHT22;2117;47.972;7.830;2023-08-06T13:06:35;14.70;99.90
4207;DHT22;2117;47.972;7.830;2023-08-06T13:09:05;14.90;99.90
4207;DHT22;2117;47.972;7.830;2023-08-06T13:11:31;15.10;99.90
4207;DHT22;2117;47.972;7.830;2023-08-06T13:14:04;15.30;99.90
4207;DHT22;2117;47.972;7.830;2023-08-06T13:16:30;15.70;99.90
4207;DHT22;2117;47.972;7.830;2023-08-06T13:18:56;16.00;99.90
4207;DHT22;2117;47.972;7.830;2023-08-06T13:21:22;16.40;99.90
4207;DHT22;2117;47.972;7.830;2023-08-06T13:23:47;16.40;99.90
4207;DHT22;2117;47.972;7.830;2023-08-06T13:26:13;16.40;99.90
4207;DHT22;2117;47.972;7.830;2023-08-06T13:28:39;16.40;99.90
4207;DHT22;2117;47.972;7.830;2023-08-06T13:31:04;16.40;99.90
4207;DHT22;2117;47.972;7.830;2023-08-06T13:33:30;16.40;99.90
4207;DHT22;2117;47.972;7.830;2023-08-06T13:35:56;16.40;99.90
4207;DHT22;2117;47.972;7.830;2023-08-06T13:40:49;16.10;99.90
4207;DHT22;2117;47.972;7.830;2023-08-06T13:43:15;16.10;99.90
4207;DHT22;2117;47.972;7.830;2023-08-06T13:45:42;16.20;99.90
4207;DHT22;2117;47.972;7.830;2023-08-06T13:48:08;16.10;99.90
4207;DHT22;2117;47.972;7.830;2023-08-06T13:50:34;16.00;99.90
4207;DHT22;2117;47.972;7.830;2023-08-06T13:52:59;15.90;99.90
4207;DHT22;2117;47.972;7.830;2023-08-06T13:55:25;15.80;99.90
4207;DHT22;2117;47.972;7.830;2023-08-06T13:57:51;15.70;99.90
4207;DHT22;2117;47.972;7.830;2023-08-06T14:00:17;15.60;99.90
4207;DHT22;2117;47.972;7.830;2023-08-06T14:02:43;15.50;99.90
4207;DHT22;2117;47.972;7.830;2023-08-06T14:05:11;15.60;99.90
4207;DHT22;2117;47.972;7.830;2023-08-06T14:07:37;15.60;99.90
4207;DHT22;2117;47.972;7.830;2023-08-06T14:10:02;15.60;99.90
4207;DHT22;2117;47.972;7.830;2023-08-06T14:12:28;15.50;99.90
4207;DHT22;2117;47.972;7.830;2023-08-06T14:14:54;15.60;99.90
4207;DHT22;2117;47.972;7.830;2023-08-06T14:17:19;15.90;99.90
4207;DHT22;2117;47.972;7.830;2023-08-06T14:19:45;16.10;99.90
4207;DHT22;2117;47.972;7.830;2023-08-06T14:22:10;16.10;99.90
4207;DHT22;2117;47.972;7.830;2023-08-06T14:24:38;16.00;99.90
4207;DHT22;2117;47.972;7.830;2023-08-06T14:27:03;16.00;99.90
4207;DHT22;2117;47.972;7.830;2023-08-06T14:29:31;15.80;99.90
4207;DHT22;2117;47.972;7.830;2023-08-06T14:31:56;15.80;99.90
4207;DHT22;2117;47.972;7.830;2023-08-06T14:34:22;15.90;99.90
4207;DHT22;2117;47.972;7.830;2023-08-06T14:36:48;16.00;99.90
4207;DHT22;2117;47.972;7.830;2023-08-06T14:39:13;16.10;99.90
4207;DHT22;2117;47.972;7.830;2023-08-06T14:41:39;16.20;99.90
4207;DHT22;2117;47.972;7.830;2023-08-06T14:44:05;16.00;99.90
4207;DHT22;2117;47.972;7.830;2023-08-06T14:46:32;16.10;99.90
4207;DHT22;2117;47.972;7.830;2023-08-06T14:48:58;16.20;99.90
4207;DHT22;2117;47.972;7.830;2023-08-06T14:51:23;16.40;99.90
4207;DHT22;2117;47.972;7.830;2023-08-06T14:53:49;17.00;99.90
4207;DHT22;2117;47.972;7.830;2023-08-06T14:56:15;17.30;99.90
4207;DHT22;2117;47.972;7.830;2023-08-06T14:58:40;17.20;99.90
4207;DHT22;2117;47.972;7.830;2023-08-06T15:01:07;17.20;99.90
4207;DHT22;2117;47.972;7.830;2023-08-06T15:03:32;17.30;99.90
4207;DHT22;2117;47.972;7.830;2023-08-06T15:05:59;17.30;99.90
4207;DHT22;2117;47.972;7.830;2023-08-06T15:08:24;17.30;99.90
4207;DHT22;2117;47.972;7.830;2023-08-06T15:10:51;17.30;99.90
4207;DHT22;2117;47.972;7.830;2023-08-06T15:13:18;17.30;99.90
4207;DHT22;2117;47.972;7.830;2023-08-06T15:15:43;17.20;99.90
4207;DHT22;2117;47.972;7.830;2023-08-06T15:18:10;17.00;99.90
4207;DHT22;2117;47.972;7.830;2023-08-06T15:20:36;16.80;99.90
4207;DHT22;2117;47.972;7.830;2023-08-06T15:23:02;16.50;99.90
4207;DHT22;2117;47.972;7.830;2023-08-06T15:25:27;16.40;99.90
4207;DHT22;2117;47.972;7.830;2023-08-06T15:27:53;16.30;99.90
4207;DHT22;2117;47.972;7.830;2023-08-06T15:30:19;16.20;99.90
4207;DHT22;2117;47.972;7.830;2023-08-06T15:32:46;16.20;99.90
4207;DHT22;2117;47.972;7.830;2023-08-06T15:35:12;16.20;99.90
4207;DHT22;2117;47.972;7.830;2023-08-06T15:37:38;16.20;99.90
4207;DHT22;2117;47.972;7.830;2023-08-06T15:40:06;16.10;99.90
4207;DHT22;2117;47.972;7.830;2023-08-06T15:42:32;16.00;99.90
4207;DHT22;2117;47.972;7.830;2023-08-06T15:44:58;16.00;99.90
4207;DHT22;2117;47.972;7.830;2023-08-06T15:47:23;16.00;99.90
4207;DHT22;2117;47.972;7.830;2023-08-06T15:49:49;16.10;99.90
4207;DHT22;2117;47.972;7.830;2023-08-06T15:52:14;16.10;99.90
4207;DHT22;2117;47.972;7.830;2023-08-06T15:54:40;16.10;99.90
4207;DHT22;2117;47.972;7.830;2023-08-06T15:57:06;16.20;99.90
4207;DHT22;2117;47.972;7.830;2023-08-06T15:59:32;16.30;99.90
4207;DHT22;2117;47.972;7.830;2023-08-06T16:01:59;16.30;99.90
4207;DHT22;2117;47.972;7.830;2023-08-06T16:04:26;16.30;99.90
4207;DHT22;2117;47.972;7.830;2023-08-06T16:06:52;16.40;99.90
4207;DHT22;2117;47.972;7.830;2023-08-06T16:09:17;16.40;99.90
4207;DHT22;2117;47.972;7.830;2023-08-06T16:11:44;16.40;99.90
4207;DHT22;2117;47.972;7.830;2023-08-06T16:14:09;16.40;99.90
4207;DHT22;2117;47.972;7.830;2023-08-06T16:16:35;16.40;99.90
4207;DHT22;2117;47.972;7.830;2023-08-06T16:19:03;16.40;99.90
4207;DHT22;2117;47.972;7.830;2023-08-06T16:21:29;16.40;99.90
4207;DHT22;2117;47.972;7.830;2023-08-06T16:23:55;16.30;99.90
4207;DHT22;2117;47.972;7.830;2023-08-06T16:26:21;16.40;99.90
4207;DHT22;2117;47.972;7.830;2023-08-06T16:28:46;16.30;99.90
4207;DHT22;2117;47.972;7.830;2023-08-06T16:31:12;16.30;99.90
4207;DHT22;2117;47.972;7.830;2023-08-06T16:33:38;16.20;99.90
4207;DHT22;2117;47.972;7.830;2023-08-06T16:36:04;16.30;99.90
4207;DHT22;2117;47.972;7.830;2023-08-06T16:38:30;16.30;99.90
4207;DHT22;2117;47.972;7.830;2023-08-06T16:40:55;16.30;99.90
4207;DHT22;2117;47.972;7.830;2023-08-06T16:43:22;16.30;99.90
4207;DHT22;2117;47.972;7.830;2023-08-06T16:45:48;16.40;99.90
4207;DHT22;2117;47.972;7.830;2023-08-06T16:48:14;16.40;99.90
4207;DHT22;2117;47.972;7.830;2023-08-06T16:50:39;16.30;99.90
4207;DHT22;2117;47.972;7.830;2023-08-06T16:53:06;16.30;99.90
4207;DHT22;2117;47.972;7.830;2023-08-06T16:55:32;16.40;99.90
4207;DHT22;2117;47.972;7.830;2023-08-06T16:57:58;16.30;99.90
4207;DHT22;2117;47.972;7.830;2023-08-06T17:00:23;16.30;99.90
4207;DHT22;2117;47.972;7.830;2023-08-06T17:02:49;16.30;99.90
4207;DHT22;2117;47.972;7.830;2023-08-06T17:05:14;16.30;99.90
4207;DHT22;2117;47.972;7.830;2023-08-06T17:07:40;16.40;99.90
4207;DHT22;2117;47.972;7.830;2023-08-06T17:10:09;16.40;99.90
4207;DHT22;2117;47.972;7.830;2023-08-06T17:12:35;16.40;99.90
4207;DHT22;2117;47.972;7.830;2023-08-06T17:15:00;16.40;99.90